sensor_id;sensor_type;location;lat;lon;timestamp;pressure;altitude;pressure_sealevel;temperature;humidity
29163;BME280;20331;53.144;8.208;2022-09-03T00:13:51;101378.22;;;17.66;58.23
29163;BME280;20331;53.144;8.208;2022-09-03T00:24:17;101374.16;;;17.52;57.89
29163;BME280;20331;53.144;8.208;2022-09-03T00:34:50;101378.09;;;17.47;59.37
29163;BME280;20331;53.144;8.208;2022-09-03T01:06:57;101363.88;;;16.55;63.10
29163;BME280;20331;53.144;8.208;2022-09-03T01:28:50;101366.31;;;16.15;64.66
29163;BME280;20331;53.144;8.208;2022-09-03T02:01:25;101370.28;;;15.76;66.23
29163;BME280;20331;53.144;8.208;2022-09-03T02:12:01;101369.91;;;15.70;66.48
29163;BME280;20331;53.144;8.208;2022-09-03T02:22:24;101365.81;;;15.55;67.32
29163;BME280;20331;53.144;8.208;2022-09-03T02:32:46;101362.56;;;15.41;67.10
29163;BME280;20331;53.144;8.208;2022-09-03T02:43:12;101360.25;;;15.25;67.77
29163;BME280;20331;53.144;8.208;2022-09-03T02:53:36;101368.63;;;15.07;67.99
29163;BME280;20331;53.144;8.208;2022-09-03T03:03:58;101375.63;;;14.95;69.50
29163;BME280;20331;53.144;8.208;2022-09-03T03:14:20;101359.88;;;14.95;69.26
29163;BME280;20331;53.144;8.208;2022-09-03T03:24:42;101369.66;;;14.93;69.74
29163;BME280;20331;53.144;8.208;2022-09-03T03:35:04;101361.28;;;14.88;70.05
29163;BME280;20331;53.144;8.208;2022-09-03T03:45:26;101366.22;;;14.69;70.88
29163;BME280;20331;53.144;8.208;2022-09-03T03:55:54;101369.31;;;14.51;71.01
29163;BME280;20331;53.144;8.208;2022-09-03T04:06:18;101367.03;;;14.46;71.67
29163;BME280;20331;53.144;8.208;2022-09-03T04:16:41;101371.06;;;14.40;71.27
29163;BME280;20331;53.144;8.208;2022-09-03T04:27:03;101381.16;;;14.33;72.02
29163;BME280;20331;53.144;8.208;2022-09-03T04:37:24;101360.38;;;14.30;72.66
29163;BME280;20331;53.144;8.208;2022-09-03T04:48:10;101360.72;;;14.26;72.52
29163;BME280;20331;53.144;8.208;2022-09-03T04:58:32;101355.16;;;14.18;72.11
29163;BME280;20331;53.144;8.208;2022-09-03T05:08:53;101359.34;;;14.08;73.01
29163;BME280;20331;53.144;8.208;2022-09-03T05:19:15;101369.06;;;14.31;72.87
29163;BME280;20331;53.144;8.208;2022-09-03T05:29:37;101357.44;;;14.22;72.57
29163;BME280;20331;53.144;8.208;2022-09-03T05:39:59;101362.88;;;14.32;72.16
29163;BME280;20331;53.144;8.208;2022-09-03T05:50:20;101356.88;;;14.65;71.00
29163;BME280;20331;53.144;8.208;2022-09-03T06:00:42;101355.75;;;14.80;71.98
29163;BME280;20331;53.144;8.208;2022-09-03T06:11:07;101347.75;;;15.05;71.35
29163;BME280;20331;53.144;8.208;2022-09-03T06:21:29;101360.38;;;15.00;70.70
29163;BME280;20331;53.144;8.208;2022-09-03T06:31:51;101356.94;;;15.34;69.60
29163;BME280;20331;53.144;8.208;2022-09-03T06:42:12;101353.28;;;15.47;70.98
29163;BME280;20331;53.144;8.208;2022-09-03T06:52:34;101343.13;;;15.98;67.56
29163;BME280;20331;53.144;8.208;2022-09-03T07:02:56;101345.88;;;16.18;66.98
29163;BME280;20331;53.144;8.208;2022-09-03T07:13:19;101348.56;;;16.49;65.29
29163;BME280;20331;53.144;8.208;2022-09-03T07:23:41;101353.75;;;16.82;65.36
29163;BME280;20331;53.144;8.208;2022-09-03T07:34:05;101345.69;;;17.15;63.14
29163;BME280;20331;53.144;8.208;2022-09-03T07:44:30;101339.66;;;17.44;61.29
29163;BME280;20331;53.144;8.208;2022-09-03T07:54:52;101339.63;;;17.65;60.35
29163;BME280;20331;53.144;8.208;2022-09-03T08:05:15;101344.50;;;17.90;59.62
29163;BME280;20331;53.144;8.208;2022-09-03T08:15:40;101355.09;;;18.09;60.85
29163;BME280;20331;53.144;8.208;2022-09-03T08:26:03;101344.69;;;18.46;58.20
29163;BME280;20331;53.144;8.208;2022-09-03T08:36:29;101343.06;;;18.83;57.30
29163;BME280;20331;53.144;8.208;2022-09-03T08:57:31;101347.81;;;19.73;54.09
29163;BME280;20331;53.144;8.208;2022-09-03T09:08:26;101340.22;;;20.24;51.81
29163;BME280;20331;53.144;8.208;2022-09-03T09:19:12;101340.16;;;20.33;52.70
29163;BME280;20331;53.144;8.208;2022-09-03T09:29:37;101344.88;;;20.83;49.60
29163;BME280;20331;53.144;8.208;2022-09-03T09:39:59;101340.34;;;20.93;48.01
29163;BME280;20331;53.144;8.208;2022-09-03T09:50:21;101323.47;;;21.20;46.50
29163;BME280;20331;53.144;8.208;2022-09-03T10:01:02;101330.91;;;21.16;48.86
29163;BME280;20331;53.144;8.208;2022-09-03T10:11:27;101323.81;;;21.42;47.41
29163;BME280;20331;53.144;8.208;2022-09-03T10:22:11;101322.44;;;21.89;44.07
29163;BME280;20331;53.144;8.208;2022-09-03T10:32:55;101305.53;;;21.90;43.81
29163;BME280;20331;53.144;8.208;2022-09-03T10:54:34;101284.50;;;22.53;41.09
29163;BME280;20331;53.144;8.208;2022-09-03T11:15:53;101272.03;;;22.70;41.50
29163;BME280;20331;53.144;8.208;2022-09-03T11:26:18;101266.91;;;23.16;39.44
29163;BME280;20331;53.144;8.208;2022-09-03T11:36:41;101262.75;;;22.74;40.81
29163;BME280;20331;53.144;8.208;2022-09-03T11:47:41;101256.56;;;23.37;39.49
29163;BME280;20331;53.144;8.208;2022-09-03T11:58:27;101249.22;;;23.39;41.22
29163;BME280;20331;53.144;8.208;2022-09-03T12:30:16;101234.25;;;23.38;41.47
29163;BME280;20331;53.144;8.208;2022-09-03T12:40:41;101236.28;;;23.28;41.38
29163;BME280;20331;53.144;8.208;2022-09-03T12:51:23;101225.47;;;23.84;41.35
29163;BME280;20331;53.144;8.208;2022-09-03T13:02:16;101220.91;;;23.46;40.81
29163;BME280;20331;53.144;8.208;2022-09-03T13:12:45;101206.94;;;23.44;40.67
29163;BME280;20331;53.144;8.208;2022-09-03T13:33:51;101193.03;;;24.03;39.69
29163;BME280;20331;53.144;8.208;2022-09-03T13:54:44;101188.63;;;23.49;41.29
29163;BME280;20331;53.144;8.208;2022-09-03T14:15:50;101179.13;;;23.93;42.87
29163;BME280;20331;53.144;8.208;2022-09-03T14:26:18;101180.50;;;23.50;40.99
29163;BME280;20331;53.144;8.208;2022-09-03T14:37:08;101176.81;;;23.90;40.65
29163;BME280;20331;53.144;8.208;2022-09-03T14:48:09;101170.81;;;23.88;39.62
29163;BME280;20331;53.144;8.208;2022-09-03T15:20:23;101157.75;;;24.45;38.05
29163;BME280;20331;53.144;8.208;2022-09-03T15:30:56;101163.13;;;23.93;39.02
29163;BME280;20331;53.144;8.208;2022-09-03T15:41:32;101169.66;;;24.13;38.61
29163;BME280;20331;53.144;8.208;2022-09-03T16:24:46;101189.50;;;24.33;38.42
29163;BME280;20331;53.144;8.208;2022-09-03T16:35:14;101184.91;;;23.66;38.73
29163;BME280;20331;53.144;8.208;2022-09-03T16:46:14;101198.06;;;23.59;39.43
29163;BME280;20331;53.144;8.208;2022-09-03T17:39:19;101215.41;;;22.69;43.28
29163;BME280;20331;53.144;8.208;2022-09-03T17:49:51;101218.88;;;22.46;43.21
29163;BME280;20331;53.144;8.208;2022-09-03T18:00:32;101233.25;;;22.12;44.19
29163;BME280;20331;53.144;8.208;2022-09-03T18:11:22;101256.72;;;21.83;45.30
29163;BME280;20331;53.144;8.208;2022-09-03T18:21:48;101264.13;;;21.71;45.80
29163;BME280;20331;53.144;8.208;2022-09-03T18:32:29;101282.84;;;21.62;46.92
29163;BME280;20331;53.144;8.208;2022-09-03T18:54:08;101303.31;;;21.27;46.27
29163;BME280;20331;53.144;8.208;2022-09-03T19:05:21;101321.38;;;21.23;47.01
29163;BME280;20331;53.144;8.208;2022-09-03T19:16:12;101324.22;;;20.87;46.89
29163;BME280;20331;53.144;8.208;2022-09-03T19:49:38;101343.34;;;20.63;46.17
29163;BME280;20331;53.144;8.208;2022-09-03T20:00:27;101358.88;;;20.32;46.60
29163;BME280;20331;53.144;8.208;2022-09-03T20:11:14;101362.25;;;20.24;47.27
29163;BME280;20331;53.144;8.208;2022-09-03T20:21:48;101378.75;;;20.09;47.42
29163;BME280;20331;53.144;8.208;2022-09-03T20:54:12;101389.47;;;19.61;48.96
29163;BME280;20331;53.144;8.208;2022-09-03T21:05:00;101397.59;;;19.41;48.56
29163;BME280;20331;53.144;8.208;2022-09-03T21:26:16;101418.03;;;19.01;49.91
29163;BME280;20331;53.144;8.208;2022-09-03T21:36:42;101419.41;;;18.86;50.51
29163;BME280;20331;53.144;8.208;2022-09-03T21:47:09;101432.63;;;18.86;50.59
29163;BME280;20331;53.144;8.208;2022-09-03T21:58:01;101438.41;;;18.71;51.65
29163;BME280;20331;53.144;8.208;2022-09-03T22:19:09;101452.25;;;18.44;51.98
29163;BME280;20331;53.144;8.208;2022-09-03T22:40:24;101451.34;;;18.25;53.18
29163;BME280;20331;53.144;8.208;2022-09-03T22:50:57;101451.22;;;18.06;54.03
29163;BME280;20331;53.144;8.208;2022-09-03T23:01:25;101453.09;;;17.95;53.73
29163;BME280;20331;53.144;8.208;2022-09-03T23:11:53;101445.75;;;17.78;54.07
29163;BME280;20331;53.144;8.208;2022-09-03T23:22:26;101445.69;;;17.68;55.36
29163;BME280;20331;53.144;8.208;2022-09-03T23:32:55;101438.06;;;17.45;55.80
